Sonic Adventure (DX): Overall Rankings

Records: Times | Rings | Scores | Races | Bosses | Freestyle
Leaders: Times | Rings | Scores | Races | Bosses | Freestyle | Overall
Rank Player Percent Points Date Grade
1 Sonicspeedruner 98.0% 338 01-14-18 S
2 Gamepro011 98.0% 345 01-14-18 A
3 DarkPolarNight 96.7% 564 01-14-18 A
4 Jawzun 93.2% 1183 01-14-18 A
5 Dashjump 91.6% 1450 01-14-18 A
6 DarkspinesSonic 89.8% 1769 01-14-18 A
7 Avento128bits 89.6% 1804 01-14-18 A
8 ike6252 89.4% 1837 01-14-18 A
9 F-Man 87.6% 2154 01-14-18 A
10 Coolfansonic 87.1% 2239 01-14-18 A
11 HyperSonic7701 84.3% 2731 01-14-18 A
12 TheRealShadnic 84.0% 2785 01-14-18 A
13 yoshifan 82.6% 3025 01-14-18 A
14 frankoredstrato 82.2% 3096 01-14-18 A
15 francisco 81.3% 3262 01-14-18 A
16 Marth 81.1% 3294 01-14-18 A
17 InferSaime 79.8% 3514 01-14-18 B
18 PfoSonic 79.3% 3595 01-14-18 B
19 Paragod 79.0% 3664 01-14-18 B
20 THC98 78.1% 3820 01-14-18 B
21 Stefan 75.7% 4234 01-14-18 B
22 RPGnutter 73.6% 4605 01-14-18 B
23 bertin 73.5% 4623 01-14-18 B
24 sonicam 71.4% 4989 01-14-18 B
25 drminus 70.0% 5232 01-14-18 B
26 xXMegaManXx 69.9% 5242 01-14-18 B
27 chainchumper 65.8% 5962 01-14-18 B
28 Combo 65.4% 6021 01-14-18 B
29 chaos shadow 64.8% 6125 01-14-18 B
30 SkyLights 64.3% 6222 01-14-18 B
31 Dekuboy 62.3% 6561 01-14-18 B
32 Diamond 62.2% 6588 01-14-18 B
33 Auriman1 60.1% 6947 01-14-18 B
33 GerbilSoft 60.1% 6947 01-14-18 B
35 OmegaDJ 60.1% 6957 01-14-18 B
36 magnum12 59.3% 7096 01-14-18 C
37 Thorn 57.1% 7478 01-14-18 C
38 P1 Pause 57.0% 7500 01-14-18 C
39 mike89 55.9% 7692 01-14-18 C
40 Dave Cramer 53.9% 8031 01-14-18 C
41 Groudon199 53.9% 8038 01-14-18 C
42 Parax 53.1% 8172 01-14-18 C
43 Shadow Jacky 52.8% 8233 01-14-18 C
44 Psymar 47.6% 9135 01-14-18 C
45 Arch 46.9% 9254 01-14-18 C
46 Chao_Fan 45.9% 9424 01-14-18 C
47 mauserman 45.1% 9567 01-14-18 C
48 Quartz 44.9% 9608 01-14-18 C
49 teamblackarms 44.1% 9743 01-14-18 C
50 Calfd 43.5% 9857 01-14-18 C
51 Psyknux 43.3% 9880 01-14-18 C
52 James_Bertolli 43.1% 9923 01-14-18 C
53 NintenDan 42.6% 9999 01-14-18 C
54 Webber3000 42.1% 10091 01-14-18 C
55 Turbos 42.0% 10113 01-14-18 C
56 Ring Rush 41.8% 10150 01-14-18 C
57 Cream147 41.6% 10186 01-14-18 C
58 videogamemaster777 41.4% 10212 01-14-18 C
59 Fr3nZy 41.3% 10229 01-14-18 C
60 Siavash Tazari 41.3% 10241 01-14-18 C
61 buddychaos0415 40.7% 10340 01-14-18 C
62 SadisticMystic 40.2% 10427 01-14-18 C
63 ethmar 39.7% 10514 01-14-18 D
64 eggFL 39.4% 10568 01-14-18 D
65 SB737 37.8% 10846 01-14-18 D
66 supersonic465 37.3% 10928 01-14-18 D
67 supersonicfan 36.7% 11040 01-14-18 D
68 FuzZerd 35.5% 11245 01-14-18 D
69 Aitamen 35.0% 11333 01-14-18 D
70 BigAL49 34.6% 11399 01-14-18 D
71 elecmouse101 34.6% 11402 01-14-18 D
72 danieldude 34.5% 11421 01-14-18 D
73 Austinf 33.6% 11582 01-14-18 D
74 metanightmare22 33.4% 11608 01-14-18 D
75 Cyan Ryan 33.2% 11641 01-14-18 D
76 dabestgamer 32.9% 11691 01-14-18 D
77 MiStEr_ShAoLiN 32.9% 11702 01-14-18 D
78 Andrea Ritsu 32.1% 11833 01-14-18 D
79 itsPersonnal 31.7% 11909 01-14-18 D
80 Cybrax 31.1% 12021 01-14-18 D
81 SilvertheAlmighty 30.8% 12071 01-14-18 D
82 JamminX42 30.7% 12083 01-14-18 D
83 Nim 30.6% 12100 01-14-18 D
84 VMU Player Banned 29.0% 12383 01-14-18 D
85 Staf 28.5% 12461 01-14-18 D
86 Omega Rafael Santos 28.4% 12479 01-14-18 D
87 The T 28.1% 12543 01-14-18 D
88 EngiNerd 27.9% 12577 01-14-18 D
89 lordmetalsonic 27.4% 12654 01-14-18 D
90 Hipertails12 26.9% 12745 01-14-18 D
91 welldooder64 26.8% 12757 01-14-18 D
92 GreatStar 26.6% 12796 01-14-18 D
93 The Great Lord Mick 26.4% 12829 01-14-18 D
94 Sondow 26.4% 12842 01-14-18 D
95 Mastakirby 26.3% 12848 01-14-18 D
96 LinksDarkArrows 26.2% 12876 01-14-18 D
97 Skylace 25.2% 13039 01-14-18 D
98 a_moustache 24.2% 13221 01-14-18 D
99 Rolken 23.7% 13302 01-14-18 D
100 Xia 22.0% 13594 01-14-18 D
101 Kogen Player Banned 22.0% 13597 01-14-18 D
101 Spinballwizard 22.0% 13597 01-14-18 D
103 Twilisailor 21.6% 13670 01-14-18 D
104 f0rever_zer0 21.5% 13686 01-14-18 D
105 Don 21.3% 13719 01-14-18 D
106 Cutiefox 21.3% 13721 01-14-18 D
107 Game_Complete 21.2% 13739 01-14-18 D
108 Miles9999 21.2% 13749 01-14-18 D
109 andres430 20.7% 13828 01-14-18 D
110 Cruizer 20.4% 13874 01-14-18 D
111 iSonicKid2K 20.3% 13892 01-14-18 D
112 SADXTryHard 20.1% 13931 01-14-18 D
113 GarnetPrincess 19.6% 14017 01-14-18 E
114 N 19.3% 14075 01-14-18 E
115 AxlThunder 19.0% 14120 01-14-18 E
116 Niczur 19.0% 14130 01-14-18 E
117 knuckles_sonic8 18.5% 14208 01-14-18 E
118 The Knuckles Chao 18.3% 14251 01-14-18 E
119 KinkyCadence 18.2% 14262 01-14-18 E
120 Team_Yoshi 17.9% 14322 01-14-18 E
121 Termon 17.8% 14329 01-14-18 E
122 LittleBigness 17.8% 14342 01-14-18 E
123 SonicWinDX 17.6% 14366 01-14-18 E
124 FoxBoy 17.6% 14376 01-14-18 E
125 Drakodan 16.8% 14504 01-14-18 E
126 Sonic Singularity 15.9% 14672 01-14-18 E
127 Pokemonmaster888 15.6% 14721 01-14-18 E
128 SilverSonic 14.6% 14896 01-14-18 E
129 MPit08 14.5% 14918 01-14-18 E
130 WeegeeZV 14.2% 14962 01-14-18 E
131 koinu93 14.1% 14982 01-14-18 E
132 Mo Player Banned 14.0% 14993 01-14-18 E
133 HyperSonic64 13.6% 15065 01-14-18 E
134 Cod4Scopes 13.6% 15067 01-14-18 E
135 booo95 13.5% 15090 01-14-18 E
136 Chawkk 13.3% 15112 01-14-18 E
137 Jerzia 13.3% 15113 01-14-18 E
138 paulie9990 13.3% 15120 01-14-18 E
139 SuperSonic101 13.1% 15159 01-14-18 E
140 Hunters13 13.0% 15164 01-14-18 E
141 Maxinfamily 13.0% 15172 01-14-18 E
142 LilZero 12.6% 15239 01-14-18 E
143 Kanimayo_Jp 12.6% 15243 01-14-18 E
144 BrokenArthritis 12.5% 15267 01-14-18 E
145 PsyBorg 12.4% 15282 01-14-18 E
146 Flying Fox 12.3% 15290 01-14-18 E
147 Therio 12.0% 15345 01-14-18 E
148 sonicspeed 11.9% 15371 01-14-18 E
149 douglas 11.8% 15385 01-14-18 E
150 Matt_TY 11.4% 15447 01-14-18 E
151 thewaytodawnnn 11.4% 15452 01-14-18 E
152 ModifiedMonkee 11.2% 15489 01-14-18 E
153 Cooljay 10.9% 15546 01-14-18 E
154 SuperBlitzCraig 10.7% 15573 01-14-18 E
155 SeaWolf 10.6% 15584 01-14-18 E
156 joecoolgames 10.6% 15585 01-14-18 E
157 videogamer1014 10.5% 15610 01-14-18 E
158 AC-Tygo 10.2% 15656 01-14-18 E
159 welshmoose05 10.2% 15665 01-14-18 E
160 OddCook 10.0% 15703 01-14-18 E
161 crazy1993 9.9% 15711 01-14-18 E
162 TFEC Headshot 9.8% 15725 01-14-18 E
163 Mcshuggets 9.7% 15752 01-14-18 E
164 niscool 9.4% 15798 01-14-18 E
165 Mariobutch 9.3% 15824 01-14-18 E
166 Irregular Zero 9.3% 15826 01-14-18 E
167 nuckrieg 9.2% 15834 01-14-18 E
168 SonicAD 9.2% 15842 01-14-18 E
169 Shadowthegreat 9.0% 15865 01-14-18 E
170 superjupi 9.0% 15869 01-14-18 E
171 SirTobbii 9.0% 15874 01-14-18 E
172 sonamyfan666 8.7% 15918 01-14-18 E
173 iarebored 8.6% 15933 01-14-18 E
174 Powerjohn25 8.6% 15934 01-14-18 E
175 SaviourDC 8.6% 15940 01-14-18 E
176 SonicKnuckles 8.6% 15945 01-14-18 E
177 adf 8.2% 16006 01-14-18 E
177 Werey 8.2% 16006 01-14-18 E
179 Megaman EXE565 8.0% 16047 01-14-18 E
180 Platformer 7.6% 16114 01-14-18 E
181 ArcticDragon 7.6% 16117 01-14-18 E
182 timpkmn89 7.5% 16134 01-14-18 E
183 wheatrich 7.4% 16151 01-14-18 E
184 FocusSight64 7.3% 16166 01-14-18 E
184 Swift Hobo 7.3% 16166 01-14-18 E
186 Rickyman48 7.1% 16200 01-14-18 E
187 KitsuneYamaro 7.0% 16211 01-14-18 E
188 Triseena 6.9% 16241 01-14-18 E
189 dShadow 6.6% 16292 01-14-18 E
190 Destroyer121121 6.5% 16302 01-14-18 E
191 Starlight Sable 6.5% 16308 01-14-18 E
192 CyberShadow 6.5% 16311 01-14-18 E
193 slade23 6.5% 16314 01-14-18 E
194 IsisDazs 6.3% 16342 01-14-18 E
195 BlankTH 6.1% 16375 01-14-18 E
196 Monkeh 6.1% 16382 01-14-18 E
197 Redd 6.0% 16401 01-14-18 E
198 Badlex727 5.9% 16406 01-14-18 E
199 SonicU260 5.9% 16414 01-14-18 E
200 Richied 5.8% 16432 01-14-18 E
201 DaDude 5.7% 16448 01-14-18 E
202 Swinkly 5.7% 16453 01-14-18 E
203 Crispian 5.6% 16456 01-14-18 E
204 Vicklaw 5.6% 16465 01-14-18 E
205 sonicd5 5.6% 16469 01-14-18 E
206 Zip 5.5% 16472 01-14-18 E
207 ALundstrom10 5.2% 16536 01-14-18 E
208 VeritasDL 5.2% 16539 01-14-18 E
209 tal39h 5.1% 16542 01-14-18 E
210 Kirbymon30 5.1% 16558 01-14-18 E
211 soniccoloursunleashed 5.0% 16572 01-14-18 E
212 Drflash55 4.9% 16578 01-14-18 E
213 Bass 4.9% 16591 01-14-18 E
214 neaolas 4.7% 16612 01-14-18 E
215 superiorsonic 4.7% 16617 01-14-18 E
216 zapp 4.7% 16628 01-14-18 E
217 Yish 4.6% 16630 01-14-18 E
218 UninspiredUsername 4.6% 16639 01-14-18 E
219 Sonicsuperstar1 4.5% 16651 01-14-18 E
220 gamefreak1292 4.5% 16659 01-14-18 E
221 Sora_yx 4.3% 16689 01-14-18 E
222 Chaos_Overlord 4.2% 16715 01-14-18 E
223 TakaRikka 4.0% 16737 01-14-18 E
224 Valfore 4.0% 16741 01-14-18 E
225 Dage4Aquatic 3.9% 16764 01-14-18 E
226 ShinigamiMachine 3.8% 16778 01-14-18 E
227 Regano1000 3.8% 16785 01-14-18 E
228 MK 3.7% 16798 01-14-18 E
229 Ace747 3.6% 16816 01-14-18 E
230 Jua Rever 3.5% 16838 01-14-18 E
231 Illidan 3.1% 16891 01-14-18 E
232 HHNNBBHHN 3.1% 16895 01-14-18 E
233 Venick409 3.1% 16897 01-14-18 E
234 Sithwarrior26 3.1% 16900 01-14-18 E
235 Brian_pso 3.1% 16901 01-14-18 E
235 nman36 3.1% 16901 01-14-18 E
237 Egor305 3.0% 16920 01-14-18 E
238 SkyBon 3.0% 16922 01-14-18 E
239 ingx24 2.9% 16929 01-14-18 E
239 TheChaosEmeraIds 2.9% 16929 01-14-18 E
241 dekki1234 2.9% 16938 01-14-18 E
242 Nickson98 2.9% 16941 01-14-18 E
243 Fozer 2.8% 16952 01-14-18 E
244 Colomb_30 2.8% 16954 01-14-18 E
245 FSSRandomvids 2.8% 16958 01-14-18 E
246 Aiko 2.7% 16970 01-14-18 E
247 sonic29887 2.7% 16972 01-14-18 E
248 TheUltraBlur 2.6% 16982 01-14-18 E
249 1stKirbyever 2.6% 16988 01-14-18 E
250 TimTH 2.5% 17002 01-14-18 E
251 Th4tN1nj4Turtl3 2.4% 17023 01-14-18 E
252 Cort_pso 2.3% 17036 01-14-18 E
253 ieatatsonic 2.3% 17040 01-14-18 E
254 Mariosonic15 2.2% 17048 01-14-18 E
255 Doom-9 2.2% 17050 01-14-18 E
256 Artie 2.2% 17060 01-14-18 E
257 MStitomix 2.1% 17066 01-14-18 E
258 HermitHelmet 2.1% 17070 01-14-18 E
259 Got4n 2.0% 17088 01-14-18 E
260 SuperSonic71087 2.0% 17089 01-14-18 E
261 Jose_15 2.0% 17099 01-14-18 E
262 Questionguy555 1.9% 17105 01-14-18 E
263 djmat 1.9% 17115 01-14-18 E
264 SuperSonicfan9595 1.8% 17120 01-14-18 E
265 sonicandamy Player Banned 1.7% 17137 01-14-18 E
266 Heroes_Hater 1.7% 17139 01-14-18 E
267 LancexExWx 1.7% 17148 01-14-18 E
268 Paixii 1.7% 17149 01-14-18 E
269 son1cgu1tar 1.7% 17152 01-14-18 E
270 BallzeH 1.6% 17164 01-14-18 E
270 Mankster101 1.6% 17164 01-14-18 E
272 BecauseWarAnvil 1.5% 17173 01-14-18 E
273 Jamixesa 1.5% 17177 01-14-18 E
274 SpiritDragon1995 1.5% 17185 01-14-18 E
275 Crydio 1.4% 17190 01-14-18 E
276 Shanekilz 1.4% 17191 01-14-18 E
277 MarewBFN 1.3% 17205 01-14-18 E
278 stanski 1.3% 17209 01-14-18 E
279 Sonique Hedgehog 1.3% 17211 01-14-18 E
280 p0ker 1.2% 17223 01-14-18 E
281 Blue Infamy 1.2% 17225 01-14-18 E
282 ErrortheCucco 1.2% 17236 01-14-18 E
283 Rikum22 1.2% 17239 01-14-18 E
284 Arthas 1.1% 17241 01-14-18 E
285 sonic1001 1.1% 17247 01-14-18 E
286 WingedInsignia 1.1% 17253 01-14-18 E
287 AJSIV 1.1% 17254 01-14-18 E
287 syco1098 1.1% 17254 01-14-18 E
289 Sonic the Hedgehod16 1.1% 17257 01-14-18 E
290 ASINISTERTACO 1.0% 17263 01-14-18 E
291 sonicfan9 1.0% 17268 01-14-18 E
292 BlackArmsShadow 0.9% 17277 01-14-18 E
293 themachoman202 0.9% 17279 01-14-18 E
294 darkstarblaze 0.9% 17284 01-14-18 E
295 Fivavoa 0.9% 17288 01-14-18 E
295 shadowblast63 Player Banned 0.9% 17288 01-14-18 E
297 Greham Adelphis 0.9% 17289 01-14-18 E
298 Mr. Jones 0.9% 17290 01-14-18 E
299 Ben1502 0.8% 17292 01-14-18 E
299 MastaToken 0.8% 17292 01-14-18 E
301 arcfx1985 0.8% 17293 01-14-18 E
302 ptorflaxendrosis 0.8% 17295 01-14-18 E
303 TommyeAsY 0.8% 17297 01-14-18 E
304 FlandreScarlet9999vr 0.8% 17301 01-14-18 E
304 Gvozdevik 0.8% 17301 01-14-18 E
306 Knuckles 0.8% 17302 01-14-18 E
307 Zeldocto 0.8% 17303 01-14-18 E
308 KaM Mark MaK 0.8% 17305 01-14-18 E
309 BeeAwwb 0.8% 17307 01-14-18 E
310 ShadouZaHejjihoggu 0.7% 17313 01-14-18 E
311 Sarger001 0.7% 17321 01-14-18 E
312 dragondragon18 0.7% 17323 01-14-18 E
312 Sonic The Star 0.7% 17323 01-14-18 E
312 Sonic62 0.7% 17323 01-14-18 E
315 darkersupershadic 0.7% 17324 01-14-18 E
316 Grady219 0.6% 17329 01-14-18 E
316 Sogeking 0.6% 17329 01-14-18 E
318 Shadygamerfreak 0.6% 17330 01-14-18 E
319 SonicK100 0.6% 17331 01-14-18 E
320 BioShadow 0.6% 17332 01-14-18 E
321 Jawaah 0.6% 17338 01-14-18 E
322 Antek 0.6% 17342 01-14-18 E
322 SilverK 0.6% 17342 01-14-18 E
324 Klaus 0.6% 17344 01-14-18 E
325 SpinDashMaster 0.5% 17348 01-14-18 E
326 Videogamer123 0.5% 17353 01-14-18 E
327 isaihtb11 0.4% 17368 01-14-18 E
327 oTaiIilLsS 0.4% 17368 01-14-18 E
329 OhNoes! 0.4% 17371 01-14-18 E
330 zaktu40 0.4% 17372 01-14-18 E
331 gaara1234 0.4% 17375 01-14-18 E
331 Mad Andy 0.4% 17375 01-14-18 E
331 S-MS32X-S 0.4% 17375 01-14-18 E
334 gamed00d 0.4% 17376 01-14-18 E
335 Mister_Slick 0.3% 17387 01-14-18 E
336 Sonic06Fan 0.3% 17390 01-14-18 E
337 Rush Hero 0.3% 17391 01-14-18 E
338 SonicMega167 0.3% 17396 01-14-18 E
339 Iwannabelink 0.2% 17398 01-14-18 E
340 sonknuck23 0.2% 17401 01-14-18 E
341 gamer1245 0.2% 17410 01-14-18 E
342 DanielTheFalcon 0.2% 17411 01-14-18 E
343 Burningskull123 0.1% 17415 01-14-18 E
344 Sonicontherun 0.1% 17426 01-14-18 E
345 Lil_Dude 0.1% 17431 01-14-18 E
346 antiwwe 0.0% 17432 01-14-18 E
347 Tyrouble 0.0% 17434 01-14-18 E
348 Genuine Hedgehog 0.0% 17435 01-14-18 E
348 SonataSpinDash 0.0% 17435 01-14-18 E
350 Cbwade15 0.0% 17439 01-14-18 E
351 MegabombBlade 0.0% 17449 01-14-18 E
351 neji_hyuuga 0.0% 17449 01-14-18 E
351 Over 0.0% 17449 01-14-18 E
351 sdj6707 Player Banned 0.0% 17449 01-14-18 E
351 Tran Sonic Fan Player Banned 0.0% 17449 01-14-18 E

This page is using the New Data Table System. [FUTURE]


-- Back to Normal Skin --
Game ID: 3 | Category ID: 10
Hits: 71,685 | Hits This Month: 166 | DB Calls: 16 | Mem Usage: 5.47 MB | Time: 0.14s | Printable

The Sonic Center v3.9
Copyright 2003-2011 by The Sonic Center Team.